Strona główna
METAR-TAF:

METAR-TAF

Lotnisko :

Community_Airport

Owosso, Michigan, Stany Zjednoczone

Szerokość geograficzna: 42-59-34N, Długość geograficzna: 084-08-20W, wysokość: 224 m

Aktualna obserwacja pogody

Raport powstał 21 minut temu, godzina 11:56 UTC
Wiatr 10 kt od zachodnio-południowy zachód w porywach dochodzący do 14 kt
Temperatura 20°C
Wilgotność 83%
Ciśnienie 1007 hPa
Widzialność: 16.1 km
bezchmurnie

METAR: KRNP 031156Z AUTO 25010G14KT 10SM CLR 20/17 A2975 RMK AO2 T01980172 10230 20185

czas: 08:17 (12:17 UTC)


TAF: brakujący

Obserwacja i prognoza pogody dla ponad 4000 lotnisk (raport METAR i TAF).

Dostępne stacje oznaczono żółtymi i czerwonymi punktami na mapie.

Najedź kursorem aby zobaczyć nazwę stacji.

Kliknij aby zobaczyć obserwacje i prognozy pogody.

Aby zmienić mapę: kliknij na zielony przycisk z czarnym krzyżykiem, aby powiększyć; na zielony przycisk z myślnikiem, aby pomniejszyć; na zielone strzałki, aby przejść do map sąsiednich.


METAR-TAF: